createdAt,value
2016-11-14T00:00:19.829Z,105.94
2016-11-14T00:01:19.827Z,104.15
2016-11-14T00:02:19.812Z,102.48
2016-11-14T00:03:19.806Z,101.72
2016-11-14T00:04:19.826Z,99.96
2016-11-14T00:05:19.806Z,97.37
2016-11-14T00:06:19.897Z,97.48
2016-11-14T00:07:19.823Z,95.92
2016-11-14T00:08:19.928Z,95.95
2016-11-14T00:09:19.833Z,90.79
2016-11-14T00:10:19.832Z,94.18
2016-11-14T00:11:19.847Z,93.41
2016-11-14T00:12:19.821Z,92.47
2016-11-14T00:13:19.829Z,91.46
2016-11-14T00:14:19.848Z,91.7
2016-11-14T00:15:19.824Z,91.01
2016-11-14T00:16:19.816Z,90.72
2016-11-14T00:17:19.831Z,90.71
2016-11-14T00:18:19.820Z,90.01
2016-11-14T00:19:19.839Z,89.01
2016-11-14T00:20:19.846Z,88.26
2016-11-14T00:21:19.846Z,85.97
2016-11-14T00:22:19.830Z,85.71
2016-11-14T00:23:19.923Z,85.02
2016-11-14T00:24:19.841Z,83.73
2016-11-14T00:25:19.855Z,83.51
2016-11-14T00:26:19.837Z,81.96
2016-11-14T00:27:19.841Z,82.46
2016-11-14T00:28:19.834Z,83.48
2016-11-14T00:29:19.832Z,83.43
2016-11-14T00:30:19.843Z,84.74
2016-11-14T00:31:19.832Z,83.43
2016-11-14T00:32:19.879Z,83.36
2016-11-14T00:33:19.839Z,83.38
2016-11-14T00:34:20.026Z,83.37
2016-11-14T00:35:19.844Z,83.13
2016-11-14T00:36:19.857Z,83.59
2016-11-14T00:37:19.853Z,81.74
2016-11-14T00:38:19.873Z,82.97
2016-11-14T00:39:19.841Z,83
2016-11-14T00:40:19.846Z,83.27
2016-11-14T00:41:19.838Z,83.28
2016-11-14T00:42:19.833Z,82.52
2016-11-14T00:43:19.832Z,82.77
2016-11-14T00:44:19.843Z,82.51
2016-11-14T00:45:19.865Z,83.01
2016-11-14T00:46:19.871Z,82.76
2016-11-14T00:47:19.864Z,82.78
2016-11-14T00:48:19.838Z,82.47
2016-11-14T00:49:19.905Z,81.19
2016-11-14T00:50:19.855Z,81.67
2016-11-14T00:51:19.839Z,81.41
2016-11-14T00:52:19.855Z,80.82
2016-11-14T00:53:19.849Z,81.42
2016-11-14T00:54:19.870Z,80.59
2016-11-14T00:55:19.860Z,80.87
2016-11-14T00:56:19.846Z,80.88
2016-11-14T00:57:19.861Z,80.81
2016-11-14T00:58:19.851Z,80.91
2016-11-14T00:59:19.974Z,81.48
2016-11-14T01:00:19.865Z,81.5
2016-11-14T01:01:19.939Z,81.76
2016-11-14T01:02:19.899Z,81.54
2016-11-14T01:03:19.863Z,81.56
2016-11-14T01:04:19.846Z,81.33
2016-11-14T01:05:19.874Z,80.59
2016-11-14T01:06:19.850Z,81.13
2016-11-14T01:07:19.842Z,81.57
2016-11-14T01:08:19.858Z,81.09
2016-11-14T01:09:19.855Z,80.33
2016-11-14T01:10:19.881Z,81.89
2016-11-14T01:11:19.914Z,80.85
2016-11-14T01:12:19.871Z,80.34
2016-11-14T01:13:19.856Z,80.64
2016-11-14T01:14:19.850Z,79.87
2016-11-14T01:15:19.862Z,79.85
2016-11-14T01:16:19.874Z,80.43
2016-11-14T01:17:19.871Z,79.87
2016-11-14T01:18:19.861Z,79.95
2016-11-14T01:19:19.853Z,78.64
2016-11-14T01:20:19.858Z,79.15
2016-11-14T01:21:19.868Z,78.64
2016-11-14T01:22:19.874Z,78.17
2016-11-14T01:23:19.894Z,78.75
2016-11-14T01:24:19.871Z,76.69
2016-11-14T01:25:19.860Z,76.7
2016-11-14T01:26:19.950Z,75.94
2016-11-14T01:27:19.866Z,76.99
2016-11-14T01:28:19.897Z,75.94
2016-11-14T01:29:19.923Z,75.38
2016-11-14T01:30:19.886Z,74.71
2016-11-14T01:31:19.905Z,72.95
2016-11-14T01:32:19.916Z,72.5
2016-11-14T01:33:19.895Z,71.25
2016-11-14T01:34:19.911Z,70.72
2016-11-14T01:35:20.294Z,68.67
2016-11-14T01:36:19.897Z,71.02
2016-11-14T01:37:19.871Z,72.06
2016-11-14T01:38:19.897Z,71.54
2016-11-14T01:39:20.062Z,71.59
2016-11-14T01:40:19.945Z,71.9
2016-11-14T01:41:19.892Z,72.23
2016-11-14T01:42:19.882Z,72.25
2016-11-14T01:43:19.876Z,70.98
2016-11-14T01:44:19.888Z,70.22
2016-11-14T01:45:19.937Z,68.42
2016-11-14T01:46:19.945Z,68.09
2016-11-14T01:47:19.875Z,67.13
2016-11-14T01:48:19.866Z,67.88
2016-11-14T01:49:19.872Z,67.66
2016-11-14T01:50:19.870Z,67.17
2016-11-14T01:51:19.891Z,66.12
2016-11-14T01:52:19.880Z,67.18
2016-11-14T01:53:19.885Z,67.22
2016-11-14T01:54:19.905Z,66.41
2016-11-14T01:55:19.872Z,66.14
2016-11-14T01:56:19.891Z,65.92
2016-11-14T01:57:19.925Z,66.2
2016-11-14T01:58:19.870Z,66.43
2016-11-14T01:59:19.878Z,65.66
2016-11-14T02:00:19.922Z,65.22
2016-11-14T02:01:19.888Z,64.96
2016-11-14T02:02:19.880Z,64.21
2016-11-14T02:03:19.872Z,64.22
2016-11-14T02:04:19.963Z,61.41
2016-11-14T02:05:19.882Z,61.15
2016-11-14T02:06:19.905Z,60.63
2016-11-14T02:07:19.884Z,60.67
2016-11-14T02:08:19.876Z,60.14
2016-11-14T02:09:19.921Z,60.15
2016-11-14T02:10:19.882Z,60.4
2016-11-14T02:11:19.939Z,59.39
2016-11-14T02:12:19.889Z,59.12
2016-11-14T02:13:19.882Z,59.87
2016-11-14T02:14:19.899Z,59.33
2016-11-14T02:15:19.905Z,58.29
2016-11-14T02:16:19.895Z,57.98
2016-11-14T02:17:19.895Z,57.97
2016-11-14T02:18:19.888Z,57.68
2016-11-14T02:19:19.879Z,55.87
2016-11-14T02:20:19.985Z,55.63
2016-11-14T02:21:19.909Z,54
2016-11-14T02:22:19.912Z,54
2016-11-14T02:23:19.897Z,54
2016-11-14T02:24:19.914Z,52.13
2016-11-14T02:25:19.920Z,51.87
2016-11-14T02:26:19.908Z,50.84
2016-11-14T02:27:19.917Z,51.4
2016-11-14T02:28:19.944Z,49.06
2016-11-14T02:29:19.927Z,48.07
2016-11-14T02:30:19.901Z,46.2
2016-11-14T02:31:19.915Z,45.18
2016-11-14T02:32:19.905Z,44.16
2016-11-14T02:33:19.920Z,44.19
2016-11-14T02:34:19.926Z,41.86
2016-11-14T02:35:20.004Z,42.53
2016-11-14T02:36:19.926Z,41.46
2016-11-14T02:37:19.912Z,41.22
2016-11-14T02:38:19.920Z,41.06
2016-11-14T02:39:19.928Z,40.51
2016-11-14T02:40:19.914Z,40.97
2016-11-14T02:41:19.911Z,40.7
2016-11-14T02:42:20.548Z,41.26
2016-11-14T02:43:20.854Z,40.46
2016-11-14T02:44:19.923Z,40.8
2016-11-14T02:45:19.901Z,40
2016-11-14T02:46:19.906Z,38.56
2016-11-14T02:47:19.912Z,39.57
2016-11-14T02:48:19.917Z,38.02
2016-11-14T02:49:19.923Z,38.48
2016-11-14T02:50:19.908Z,37.73
2016-11-14T02:51:19.906Z,38.01
2016-11-14T02:52:19.913Z,37.96
2016-11-14T02:53:19.898Z,37.95
2016-11-14T02:54:19.927Z,37.14
2016-11-14T02:55:19.910Z,35.85
2016-11-14T02:56:19.933Z,34.59
2016-11-14T02:57:19.919Z,34.11
2016-11-14T02:58:19.929Z,32.3
2016-11-14T02:59:19.965Z,31.03
2016-11-14T03:00:19.922Z,30.78
2016-11-14T03:01:19.910Z,27.96
2016-11-14T03:02:19.926Z,28.51
2016-11-14T03:03:19.950Z,26.37
2016-11-14T03:04:20.015Z,25.96
2016-11-14T03:05:20.015Z,25.92
2016-11-14T03:06:19.953Z,25.38
2016-11-14T03:07:19.913Z,24.01
2016-11-14T03:08:20.052Z,22.67
2016-11-14T03:09:19.942Z,22.99
2016-11-14T03:10:19.922Z,23.23
2016-11-14T03:11:20.070Z,22.45
2016-11-14T03:12:19.935Z,22.5
2016-11-14T03:13:19.926Z,21.71
2016-11-14T03:14:19.940Z,22.69
2016-11-14T03:15:19.927Z,21.89
2016-11-14T03:16:19.973Z,21.65
2016-11-14T03:17:19.915Z,22.14
2016-11-14T03:18:19.923Z,22.67
2016-11-14T03:19:19.998Z,22.67
2016-11-14T03:20:19.919Z,22.37
2016-11-14T03:21:19.911Z,22.29
2016-11-14T03:22:19.922Z,23.08
2016-11-14T03:23:19.912Z,23.43
2016-11-14T03:24:19.947Z,24.18
2016-11-14T03:25:19.928Z,25.27
2016-11-14T03:26:19.935Z,26.25
2016-11-14T03:27:19.957Z,27.05
2016-11-14T03:28:19.946Z,27.02
2016-11-14T03:29:19.942Z,27.96
2016-11-14T03:30:19.949Z,28.51
2016-11-14T03:31:20.042Z,29.83
2016-11-14T03:32:19.958Z,31.63
2016-11-14T03:33:19.938Z,32.89
2016-11-14T03:34:19.936Z,35.28
2016-11-14T03:35:19.963Z,34.76
2016-11-14T03:36:19.993Z,35.84
2016-11-14T03:37:19.940Z,37.33
2016-11-14T03:38:20.067Z,37.53
2016-11-14T03:39:19.965Z,39.35
2016-11-14T03:40:20.070Z,40.66
2016-11-14T03:41:19.960Z,41.72
2016-11-14T03:42:19.929Z,41.75
2016-11-14T03:43:19.948Z,43.05
2016-11-14T03:44:20.048Z,44.94
2016-11-14T03:45:19.997Z,45.99
2016-11-14T03:46:19.934Z,47.86
2016-11-14T03:47:19.941Z,48.85
2016-11-14T03:48:19.954Z,48.9
2016-11-14T03:49:19.938Z,50.26
2016-11-14T03:50:19.996Z,49.95
2016-11-14T03:51:20.000Z,50.95
2016-11-14T03:52:20.076Z,51.51
2016-11-14T03:53:19.961Z,51.29
2016-11-14T03:54:19.983Z,51.6
2016-11-14T03:55:19.965Z,52.17
2016-11-14T03:56:19.942Z,51.94
2016-11-14T03:57:19.972Z,51.41
2016-11-14T03:58:19.977Z,51.19
2016-11-14T03:59:19.967Z,51.42
2016-11-14T04:00:19.976Z,50.39
2016-11-14T04:01:19.953Z,51.39
2016-11-14T04:02:19.968Z,50.89
2016-11-14T04:03:19.952Z,51.08
2016-11-14T04:04:19.956Z,51.62
2016-11-14T04:05:19.968Z,50.79
2016-11-14T04:06:20.010Z,50.8
2016-11-14T04:07:19.996Z,50.23
2016-11-14T04:08:19.952Z,50.81
2016-11-14T04:09:19.965Z,49.22
2016-11-14T04:10:19.981Z,48.12
2016-11-14T04:11:19.961Z,47.85
2016-11-14T04:12:19.966Z,47.39
2016-11-14T04:13:19.959Z,46.59
2016-11-14T04:14:19.952Z,45.85
2016-11-14T04:15:20.090Z,44.54
2016-11-14T04:16:19.955Z,43.84
2016-11-14T04:17:19.978Z,44.11
2016-11-14T04:18:19.994Z,41.8
2016-11-14T04:19:19.961Z,42.37
2016-11-14T04:20:20.025Z,41.42
2016-11-14T04:21:20.122Z,39.59
2016-11-14T04:22:19.998Z,39.59
2016-11-14T04:23:20.014Z,39.66
2016-11-14T04:24:20.023Z,39.37
2016-11-14T04:25:20.195Z,39.12
2016-11-14T04:26:19.983Z,38.89
2016-11-14T04:27:20.020Z,38.92
2016-11-14T04:28:20.061Z,38.13
2016-11-14T04:29:19.959Z,37.14
2016-11-14T04:30:20.005Z,37.18
2016-11-14T04:31:19.981Z,36.9
2016-11-14T04:32:19.994Z,35.76
2016-11-14T04:33:19.975Z,36.04
2016-11-14T04:34:19.985Z,36.25
2016-11-14T04:35:19.987Z,34.77
2016-11-14T04:36:20.151Z,34.31
2016-11-14T04:37:20.027Z,33.34
2016-11-14T04:38:20.040Z,31.79
2016-11-14T04:39:19.988Z,30.04
2016-11-14T04:40:19.995Z,29.52
2016-11-14T04:41:20.014Z,29.8
2016-11-14T04:42:20.002Z,29.05
2016-11-14T04:43:19.978Z,28
2016-11-14T04:44:19.986Z,27.24
2016-11-14T04:45:19.975Z,26.76
2016-11-14T04:46:19.984Z,25.18
2016-11-14T04:47:19.978Z,25.46
2016-11-14T04:48:19.981Z,23.88
2016-11-14T04:49:19.981Z,23.02
2016-11-14T04:50:19.983Z,22.19
2016-11-14T04:51:19.994Z,21.66
2016-11-14T04:52:19.991Z,22.01
2016-11-14T04:53:19.976Z,20.68
2016-11-14T04:54:19.992Z,22.29
2016-11-14T04:55:19.987Z,22.82
2016-11-14T04:56:19.995Z,23.08
2016-11-14T04:57:19.997Z,23.36
2016-11-14T04:58:20.004Z,23.35
2016-11-14T04:59:19.986Z,22.64
2016-11-14T05:00:19.988Z,17.12
2016-11-14T05:01:20.025Z,22.91
2016-11-14T05:02:19.977Z,23.19
2016-11-14T05:03:19.979Z,23
2016-11-14T05:04:19.978Z,23.23
2016-11-14T05:05:20.010Z,22
2016-11-14T05:06:20.005Z,21.18
2016-11-14T05:07:20.005Z,22.25
2016-11-14T05:08:19.974Z,22.53
2016-11-14T05:09:19.994Z,21.5
2016-11-14T05:10:20.008Z,21.81
2016-11-14T05:11:20.006Z,20.75
2016-11-14T05:12:19.996Z,21.29
2016-11-14T05:13:19.988Z,21.31
2016-11-14T05:14:19.983Z,19.7
2016-11-14T05:15:19.994Z,20.02
2016-11-14T05:16:20.001Z,18.97
2016-11-14T05:17:19.982Z,18.41
2016-11-14T05:18:20.001Z,18.64
2016-11-14T05:19:19.995Z,19.97
2016-11-14T05:20:19.991Z,19.68
2016-11-14T05:21:20.020Z,20.15
2016-11-14T05:22:20.011Z,20.68
2016-11-14T05:23:20.002Z,20.07
2016-11-14T05:24:20.020Z,19.5
2016-11-14T05:25:20.004Z,19.05
2016-11-14T05:26:20.011Z,19.36
2016-11-14T05:27:20.002Z,18.32
2016-11-14T05:28:19.996Z,19.2
2016-11-14T05:29:20.001Z,19.46
2016-11-14T05:30:19.998Z,18.67
2016-11-14T05:31:20.025Z,18.43
2016-11-14T05:32:20.011Z,17.11
2016-11-14T05:33:20.018Z,16.9
2016-11-14T05:34:20.002Z,17.14
2016-11-14T05:35:20.016Z,15.1
2016-11-14T05:36:20.021Z,16.72
2016-11-14T05:37:19.995Z,15.67
2016-11-14T05:38:20.002Z,15.13
2016-11-14T05:39:20.022Z,13.32
2016-11-14T05:40:20.003Z,14.16
2016-11-14T05:41:20.009Z,13.05
2016-11-14T05:42:19.998Z,12.77
2016-11-14T05:43:20.034Z,13.02
2016-11-14T05:44:20.002Z,11.91
2016-11-14T05:45:19.992Z,12.34
2016-11-14T05:46:20.030Z,11.87
2016-11-14T05:47:20.037Z,12.09
2016-11-14T05:48:20.002Z,10.98
2016-11-14T05:49:20.005Z,11.25
2016-11-14T05:50:20.014Z,12.06
2016-11-14T05:51:20.016Z,12.03
2016-11-14T05:52:20.670Z,12.87
2016-11-14T05:53:20.013Z,12.57
2016-11-14T05:54:20.017Z,13.06
2016-11-14T05:55:20.011Z,14.48
2016-11-14T05:56:20.022Z,15.56
2016-11-14T05:57:20.038Z,16.12
2016-11-14T05:58:20.008Z,15.85
2016-11-14T05:59:20.027Z,16.95
2016-11-14T06:00:20.017Z,17.81
2016-11-14T06:01:20.038Z,18.07
2016-11-14T06:02:20.030Z,17.79
2016-11-14T06:03:20.049Z,17.54
2016-11-14T06:04:20.024Z,18.09
2016-11-14T06:05:20.022Z,18.17
2016-11-14T06:06:20.041Z,19.44
2016-11-14T06:07:20.044Z,19.7
2016-11-14T06:08:20.009Z,19.16
2016-11-14T06:09:20.046Z,19.41
2016-11-14T06:10:20.024Z,18.33
2016-11-14T06:11:20.069Z,17.83
2016-11-14T06:12:20.017Z,18.88
2016-11-14T06:13:20.031Z,19.18
2016-11-14T06:14:20.046Z,19.01
2016-11-14T06:15:20.042Z,19.49
2016-11-14T06:16:20.052Z,18.96
2016-11-14T06:17:20.027Z,17.5
2016-11-14T06:18:20.020Z,17.29
2016-11-14T06:19:20.031Z,16.01
2016-11-14T06:20:20.068Z,17.91
2016-11-14T06:21:20.055Z,17.45
2016-11-14T06:22:20.018Z,18
2016-11-14T06:23:20.079Z,18.49
2016-11-14T06:24:20.014Z,17.7
2016-11-14T06:25:20.020Z,18.97
2016-11-14T06:26:20.028Z,18.92
2016-11-14T06:27:20.036Z,18.71
2016-11-14T06:28:20.034Z,18.39
2016-11-14T06:29:20.036Z,18.07
2016-11-14T06:30:20.025Z,19.99
2016-11-14T06:31:20.043Z,19.99
2016-11-14T06:32:20.037Z,20.04
2016-11-14T06:33:20.041Z,20.07
2016-11-14T06:34:20.023Z,20.1
2016-11-14T06:35:20.041Z,21.86
2016-11-14T06:36:20.053Z,21.67
2016-11-14T06:37:20.058Z,21.89
2016-11-14T06:38:20.040Z,22.2
2016-11-14T06:39:20.039Z,21.42
2016-11-14T06:40:20.029Z,21.92
2016-11-14T06:41:20.054Z,22.97
2016-11-14T06:42:20.039Z,23.44
2016-11-14T06:43:20.046Z,24.01
2016-11-14T06:44:20.041Z,25.22
2016-11-14T06:45:20.034Z,26.32
2016-11-14T06:46:20.043Z,27.61
2016-11-14T06:47:20.040Z,27.06
2016-11-14T06:48:20.058Z,27.86
2016-11-14T06:49:20.047Z,28.87
2016-11-14T06:50:20.053Z,30.28
2016-11-14T06:51:20.067Z,30.26
2016-11-14T06:52:20.034Z,31.58
2016-11-14T06:53:20.055Z,33.21
2016-11-14T06:54:20.046Z,32.42
2016-11-14T06:55:20.053Z,33.51
2016-11-14T06:56:20.065Z,33.99
2016-11-14T06:57:20.052Z,35.48
2016-11-14T06:58:20.043Z,37.36
2016-11-14T06:59:20.050Z,37.04
2016-11-14T07:00:20.065Z,37.25
2016-11-14T07:01:20.071Z,38.53
2016-11-14T07:02:20.051Z,39.56
2016-11-14T07:03:20.056Z,40.32
2016-11-14T07:04:20.064Z,42.13
2016-11-14T07:05:20.058Z,44.5
2016-11-14T07:06:20.414Z,45.58
2016-11-14T07:07:20.053Z,47.4
2016-11-14T07:08:20.049Z,47.87
2016-11-14T07:09:20.070Z,50.2
2016-11-14T07:10:20.048Z,50.68
2016-11-14T07:11:20.081Z,52.69
2016-11-14T07:12:20.073Z,53.23
2016-11-14T07:13:20.068Z,55.88
2016-11-14T07:14:20.052Z,56.67
2016-11-14T07:15:20.039Z,58.19
2016-11-14T07:16:20.065Z,58.93
2016-11-14T07:17:20.067Z,61.04
2016-11-14T07:18:20.065Z,63.14
2016-11-14T07:19:20.068Z,66.46
2016-11-14T07:20:20.056Z,67.53
2016-11-14T07:21:20.080Z,70.88
2016-11-14T07:22:20.067Z,73.63
2016-11-14T07:23:20.062Z,75.65
2016-11-14T07:24:20.054Z,77.95
2016-11-14T07:25:20.074Z,80.54
2016-11-14T07:26:20.070Z,82.89
2016-11-14T07:27:20.118Z,85.74
2016-11-14T07:28:20.083Z,88.06
2016-11-14T07:29:20.102Z,90.36
2016-11-14T07:30:20.073Z,92.21
2016-11-14T07:31:20.076Z,94.75
2016-11-14T07:32:20.099Z,96.84
2016-11-14T07:33:20.089Z,100.41
2016-11-14T07:34:20.086Z,103.23
2016-11-14T07:35:20.093Z,107.01
2016-11-14T07:36:20.099Z,109.53
2016-11-14T07:37:20.097Z,113.03
2016-11-14T07:38:20.144Z,115.77
2016-11-14T07:39:20.061Z,119.06
2016-11-14T07:40:20.098Z,123.08
2016-11-14T07:41:20.068Z,127.27
2016-11-14T07:42:20.096Z,131.01
2016-11-14T07:43:20.070Z,134.97
2016-11-14T07:44:20.075Z,139.7
2016-11-14T07:45:20.064Z,143.58
2016-11-14T07:46:20.070Z,149.51
2016-11-14T07:47:20.083Z,154.53
2016-11-14T07:48:20.080Z,159.45
2016-11-14T07:49:20.083Z,166.54
2016-11-14T07:50:20.081Z,172.88
2016-11-14T07:51:20.075Z,179.21
2016-11-14T07:52:20.094Z,184.23
2016-11-14T07:53:20.097Z,191.33
2016-11-14T07:54:20.079Z,198.82
2016-11-14T07:55:20.074Z,206.29
2016-11-14T07:56:20.077Z,213.24
2016-11-14T07:57:20.083Z,220.73
2016-11-14T07:58:20.087Z,229.36
2016-11-14T07:59:20.081Z,239.07
2016-11-14T08:00:20.071Z,246.85
2016-11-14T08:01:20.075Z,254.69
2016-11-14T08:02:20.083Z,261.23
2016-11-14T08:03:20.089Z,269.49
2016-11-14T08:04:20.083Z,275.81
2016-11-14T08:05:20.081Z,284.16
2016-11-14T08:06:20.099Z,289.95
2016-11-14T08:07:20.090Z,295.77
2016-11-14T08:08:20.113Z,300.34
2016-11-14T08:09:20.110Z,306.6
2016-11-14T08:10:20.400Z,312.06
2016-11-14T08:11:20.102Z,316.12
2016-11-14T08:12:20.096Z,321.1
2016-11-14T08:13:20.129Z,325.62
2016-11-14T08:14:20.113Z,329.22
2016-11-14T08:15:20.080Z,332.59
2016-11-14T08:16:20.080Z,336.62
2016-11-14T08:17:20.096Z,341.18
2016-11-14T08:18:20.127Z,346.31
2016-11-14T08:19:20.086Z,351.76
2016-11-14T08:20:20.108Z,356.85
2016-11-14T08:21:20.111Z,363.54
2016-11-14T08:22:20.128Z,370.22
2016-11-14T08:23:20.130Z,377.07
2016-11-14T08:24:20.121Z,383.63
2016-11-14T08:25:20.145Z,390.89
2016-11-14T08:26:20.109Z,395.6
2016-11-14T08:27:20.110Z,402.54
2016-11-14T08:28:20.131Z,408.35
2016-11-14T08:29:20.118Z,414.63
2016-11-14T08:30:20.100Z,420.6
2016-11-14T08:31:20.125Z,426.8
2016-11-14T08:32:20.107Z,433.86
2016-11-14T08:33:20.135Z,438.7
2016-11-14T08:34:20.100Z,444.47
2016-11-14T08:35:20.135Z,448.78
2016-11-14T08:36:20.096Z,452.95
2016-11-14T08:37:20.116Z,458.49
2016-11-14T08:38:20.154Z,463.67
2016-11-14T08:39:20.112Z,466.77
2016-11-14T08:40:20.131Z,472
2016-11-14T08:41:20.147Z,474.87
2016-11-14T08:42:20.126Z,479.04
2016-11-14T08:43:20.132Z,482.61
2016-11-14T08:44:20.105Z,486.15
2016-11-14T08:45:20.106Z,489.83
2016-11-14T08:46:20.273Z,492.91
2016-11-14T08:47:20.102Z,498.22
2016-11-14T08:48:20.138Z,502.96
2016-11-14T08:49:20.096Z,508.09
2016-11-14T08:50:20.109Z,513.97
2016-11-14T08:51:20.169Z,519.27
2016-11-14T08:52:20.116Z,526.32
2016-11-14T08:53:20.128Z,532.97
2016-11-14T08:54:20.129Z,539.17
2016-11-14T08:55:20.132Z,544.74
2016-11-14T08:56:20.113Z,551.44
2016-11-14T08:57:20.123Z,559.58
2016-11-14T08:58:20.145Z,567.99
2016-11-14T08:59:20.135Z,574.26
2016-11-14T09:00:20.119Z,583.45
2016-11-14T09:01:20.105Z,590
2016-11-14T09:02:20.126Z,597.71
2016-11-14T09:03:20.143Z,604
2016-11-14T09:04:20.132Z,610
2016-11-14T09:05:20.141Z,616.4
2016-11-14T09:06:20.125Z,622.59
2016-11-14T09:07:20.115Z,628.56
2016-11-14T09:08:20.151Z,634.3
2016-11-14T09:09:20.133Z,639.32
2016-11-14T09:10:20.121Z,643.01
2016-11-14T09:11:20.121Z,646.47
2016-11-14T09:12:20.147Z,651.22
2016-11-14T09:13:20.144Z,656.38
2016-11-14T09:14:20.163Z,660.35
2016-11-14T09:15:20.143Z,664.39
2016-11-14T09:16:20.150Z,666.84
2016-11-14T09:17:20.135Z,668.65
2016-11-14T09:18:20.147Z,671.15
2016-11-14T09:19:20.169Z,673.54
2016-11-14T09:20:20.198Z,677.28
2016-11-14T09:21:20.137Z,680.9
2016-11-14T09:22:20.140Z,684.45
2016-11-14T09:23:20.144Z,687.15
2016-11-14T09:24:20.135Z,690.65
2016-11-14T09:25:20.160Z,692.03
2016-11-14T09:26:20.145Z,692.59
2016-11-14T09:27:20.134Z,693.47
2016-11-14T09:28:20.150Z,695.44
2016-11-14T09:29:20.134Z,697.84
2016-11-14T09:30:20.158Z,700.67
2016-11-14T09:31:20.164Z,701.68
2016-11-14T09:32:20.145Z,703
2016-11-14T09:33:20.160Z,703.36
2016-11-14T09:34:20.144Z,704.27
2016-11-14T09:35:20.141Z,705.84
2016-11-14T09:36:20.140Z,707.4
2016-11-14T09:37:20.140Z,710.71
2016-11-14T09:38:20.159Z,712.26
2016-11-14T09:39:20.171Z,714.8
2016-11-14T09:40:20.169Z,717.01
2016-11-14T09:41:20.155Z,718.77
2016-11-14T09:42:20.167Z,720.66
2016-11-14T09:43:20.169Z,721.45
2016-11-14T09:44:20.150Z,722.27
2016-11-14T09:45:20.156Z,722.94
2016-11-14T09:46:20.157Z,723.73
2016-11-14T09:47:20.156Z,724.63
2016-11-14T09:48:20.175Z,724.42
2016-11-14T09:49:20.179Z,724.42
2016-11-14T09:50:20.161Z,723.76
2016-11-14T09:51:20.168Z,724.08
2016-11-14T09:52:20.198Z,724.67
2016-11-14T09:53:20.183Z,724.68
2016-11-14T09:54:20.163Z,724.63
2016-11-14T09:55:20.173Z,726.2
2016-11-14T09:56:20.155Z,727.5
2016-11-14T09:57:20.160Z,728.3
2016-11-14T09:58:20.186Z,729.22
2016-11-14T09:59:20.157Z,728.91
2016-11-14T10:00:20.169Z,730.07
2016-11-14T10:01:20.164Z,731.96
2016-11-14T10:02:20.166Z,733.14
2016-11-14T10:03:20.192Z,735.66
2016-11-14T10:04:20.192Z,736.5
2016-11-14T10:05:20.177Z,738.49
2016-11-14T10:06:20.176Z,740.68
2016-11-14T10:07:20.176Z,741.37
2016-11-14T10:08:20.199Z,742.91
2016-11-14T10:09:20.187Z,743.88
2016-11-14T10:10:20.176Z,744.88
2016-11-14T10:11:20.182Z,745.88
2016-11-14T10:12:20.167Z,746.01
2016-11-14T10:13:20.189Z,747.05
2016-11-14T10:14:20.211Z,748.49
2016-11-14T10:15:20.164Z,749.99
2016-11-14T10:16:20.177Z,751.84
2016-11-14T10:17:20.161Z,752.62
2016-11-14T10:18:20.193Z,754.1
2016-11-14T10:19:20.178Z,753.93
2016-11-14T10:20:20.180Z,753.78
2016-11-14T10:21:20.160Z,754.75
2016-11-14T10:22:20.168Z,754.88
2016-11-14T10:23:20.191Z,756.19
2016-11-14T10:24:20.165Z,757.92
2016-11-14T10:25:20.158Z,759.03
2016-11-14T10:26:20.177Z,762.14
2016-11-14T10:27:20.184Z,764.27
2016-11-14T10:28:20.202Z,766.08
2016-11-14T10:29:20.171Z,767.24
2016-11-14T10:30:20.182Z,768.55
2016-11-14T10:31:20.186Z,769.51
2016-11-14T10:32:20.206Z,770.25
2016-11-14T10:33:20.187Z,771.2
2016-11-14T10:34:20.193Z,771.53
2016-11-14T10:35:20.187Z,771.27
2016-11-14T10:36:20.206Z,772.22
2016-11-14T10:37:20.234Z,774.04
2016-11-14T10:38:20.224Z,774.8
2016-11-14T10:39:20.181Z,776.77
2016-11-14T10:40:20.187Z,778.51
2016-11-14T10:41:20.211Z,780.12
2016-11-14T10:42:20.202Z,781.55
2016-11-14T10:43:20.226Z,782.45
2016-11-14T10:44:20.199Z,784.22
2016-11-14T10:45:20.206Z,785.59
2016-11-14T10:46:20.200Z,786.73
2016-11-14T10:47:20.198Z,787.74
2016-11-14T10:48:20.228Z,788.04
2016-11-14T10:49:20.209Z,787.58
2016-11-14T10:50:20.200Z,786.6
2016-11-14T10:51:20.181Z,785.64
2016-11-14T10:52:20.197Z,786.89
2016-11-14T10:53:20.206Z,787.97
2016-11-14T10:54:20.270Z,789.86
2016-11-14T10:55:20.200Z,791.84
2016-11-14T10:56:20.208Z,794.97
2016-11-14T10:57:20.205Z,797.3
2016-11-14T10:58:20.209Z,798.85
2016-11-14T10:59:20.238Z,801.77
2016-11-14T11:00:20.209Z,804.68
2016-11-14T11:01:20.215Z,807.81
2016-11-14T11:02:20.212Z,811.5
2016-11-14T11:03:20.216Z,813.79
2016-11-14T11:04:20.237Z,814.68
2016-11-14T11:05:20.213Z,816.36
2016-11-14T11:06:20.251Z,816.73
2016-11-14T11:07:20.227Z,816.91
2016-11-14T11:08:20.239Z,817.64
2016-11-14T11:09:20.239Z,819.12
2016-11-14T11:10:20.224Z,820.77
2016-11-14T11:11:20.238Z,821.19
2016-11-14T11:12:20.241Z,821.79
2016-11-14T11:13:20.212Z,822.07
2016-11-14T11:14:20.216Z,822.81
2016-11-14T11:15:20.302Z,822.39
2016-11-14T11:16:20.260Z,822.68
2016-11-14T11:17:20.210Z,822.57
2016-11-14T11:18:20.225Z,821.97
2016-11-14T11:19:20.218Z,822.72
2016-11-14T11:20:20.216Z,824.22
2016-11-14T11:21:20.232Z,826.39
2016-11-14T11:22:20.213Z,827.29
2016-11-14T11:23:20.216Z,828.93
2016-11-14T11:24:20.229Z,829.46
2016-11-14T11:25:20.224Z,832.94
2016-11-14T11:26:20.215Z,836.84
2016-11-14T11:27:20.244Z,839.93
2016-11-14T11:28:20.225Z,842.34
2016-11-14T11:29:20.228Z,844.49
2016-11-14T11:30:20.241Z,846.5
2016-11-14T11:31:20.213Z,847.51
2016-11-14T11:32:20.216Z,849.8
2016-11-14T11:33:20.220Z,851.3
2016-11-14T11:34:20.240Z,852.08
2016-11-14T11:35:20.232Z,852.15
2016-11-14T11:36:20.288Z,851.02
2016-11-14T11:37:20.228Z,850.86
2016-11-14T11:38:20.233Z,847.91
2016-11-14T11:39:20.232Z,845.81
2016-11-14T11:40:20.242Z,844.03
2016-11-14T11:41:20.223Z,844.18
2016-11-14T11:42:20.242Z,846.86
2016-11-14T11:43:20.237Z,848.51
2016-11-14T11:44:20.226Z,848.76
2016-11-14T11:45:20.248Z,849.65
2016-11-14T11:46:20.253Z,851.5
2016-11-14T11:47:20.225Z,852.93
2016-11-14T11:48:20.234Z,852.86
2016-11-14T11:49:20.240Z,852.58
2016-11-14T11:50:20.250Z,851.8
2016-11-14T11:51:20.307Z,851.12
2016-11-14T11:52:20.235Z,849.52
2016-11-14T11:53:20.241Z,848.35
2016-11-14T11:54:20.254Z,847.91
2016-11-14T11:55:20.335Z,847.49
2016-11-14T11:56:20.254Z,848.19
2016-11-14T11:57:20.266Z,849.52
2016-11-14T11:58:20.252Z,850.75
2016-11-14T11:59:20.263Z,852
2016-11-14T12:00:20.282Z,853.82
2016-11-14T12:01:20.260Z,855.55
2016-11-14T12:02:20.282Z,856.15
2016-11-14T12:03:20.244Z,857.01
2016-11-14T12:04:20.237Z,857.4
2016-11-14T12:05:20.257Z,858.06
2016-11-14T12:06:20.265Z,858.23
2016-11-14T12:07:20.256Z,858.82
2016-11-14T12:08:20.254Z,858.8
2016-11-14T12:09:20.262Z,858.8
2016-11-14T12:10:20.279Z,858.29
2016-11-14T12:11:20.242Z,858.14
2016-11-14T12:12:20.273Z,857.86
2016-11-14T12:13:20.241Z,857.44
2016-11-14T12:14:20.250Z,856.57
2016-11-14T12:15:20.263Z,854.69
2016-11-14T12:16:20.246Z,852.9
2016-11-14T12:17:20.250Z,851.61
2016-11-14T12:18:20.288Z,851.36
2016-11-14T12:19:20.824Z,851.51
2016-11-14T12:20:20.286Z,853.37
2016-11-14T12:21:20.292Z,854.81
2016-11-14T12:22:20.268Z,856.45
2016-11-14T12:23:20.264Z,857.57
2016-11-14T12:24:20.281Z,858.71
2016-11-14T12:25:20.281Z,861.6
2016-11-14T12:26:20.281Z,863.76
2016-11-14T12:27:20.265Z,865.65
2016-11-14T12:28:20.285Z,866.21
2016-11-14T12:29:20.282Z,867.36
2016-11-14T12:30:20.350Z,868.5
2016-11-14T12:31:20.314Z,868.98
2016-11-14T12:32:20.292Z,869.98
2016-11-14T12:33:20.265Z,870.27
2016-11-14T12:34:20.281Z,871.04
2016-11-14T12:35:20.275Z,872.23
2016-11-14T12:36:20.292Z,872.43
2016-11-14T12:37:20.289Z,873.01
2016-11-14T12:38:20.285Z,871.28
2016-11-14T12:39:20.275Z,870.42
2016-11-14T12:40:20.266Z,869.34
2016-11-14T12:41:20.271Z,867.21
2016-11-14T12:42:20.269Z,864.76
2016-11-14T12:43:20.281Z,862.46
2016-11-14T12:44:20.272Z,859.73
2016-11-14T12:45:20.291Z,857.87
2016-11-14T12:46:20.306Z,855.87